sensor_id;sensor_type;location;lat;lon;timestamp;pressure;altitude;pressure_sealevel;temperature;humidity
15750;BME280;7976;52.526;13.326;2023-03-15T00:01:59;100271.06;;;3.68;84.31
15750;BME280;7976;52.526;13.326;2023-03-15T00:04:26;100282.25;;;3.70;84.32
15750;BME280;7976;52.526;13.326;2023-03-15T00:06:54;100271.97;;;3.67;84.31
15750;BME280;7976;52.526;13.326;2023-03-15T00:09:21;100279.81;;;3.63;84.13
15750;BME280;7976;52.526;13.326;2023-03-15T00:11:49;100280.69;;;3.62;83.97
15750;BME280;7976;52.526;13.326;2023-03-15T00:14:17;100284.09;;;3.64;83.96
15750;BME280;7976;52.526;13.326;2023-03-15T00:16:44;100292.75;;;3.63;83.69
15750;BME280;7976;52.526;13.326;2023-03-15T00:19:12;100297.09;;;3.61;83.56
15750;BME280;7976;52.526;13.326;2023-03-15T00:21:40;100303.13;;;3.61;83.47
15750;BME280;7976;52.526;13.326;2023-03-15T00:24:08;100303.16;;;3.60;83.45
15750;BME280;7976;52.526;13.326;2023-03-15T00:26:36;100307.38;;;3.64;83.43
15750;BME280;7976;52.526;13.326;2023-03-15T00:29:03;100309.03;;;3.68;83.47
15750;BME280;7976;52.526;13.326;2023-03-15T00:31:30;100315.06;;;3.70;83.53
15750;BME280;7976;52.526;13.326;2023-03-15T00:33:57;100325.34;;;3.73;83.37
15750;BME280;7976;52.526;13.326;2023-03-15T00:36:25;100331.38;;;3.72;83.26
15750;BME280;7976;52.526;13.326;2023-03-15T00:38:55;100328.84;;;3.69;83.19
15750;BME280;7976;52.526;13.326;2023-03-15T00:41:23;100334.97;;;3.65;83.30
15750;BME280;7976;52.526;13.326;2023-03-15T00:43:50;100335.00;;;3.60;83.14
15750;BME280;7976;52.526;13.326;2023-03-15T00:46:18;100345.38;;;3.59;83.12
15750;BME280;7976;52.526;13.326;2023-03-15T00:48:49;100350.59;;;3.57;83.40
15750;BME280;7976;52.526;13.326;2023-03-15T00:51:19;100350.63;;;3.54;83.25
15750;BME280;7976;52.526;13.326;2023-03-15T00:53:51;100355.88;;;3.51;83.20
15750;BME280;7976;52.526;13.326;2023-03-15T00:56:20;100354.13;;;3.50;82.92
15750;BME280;7976;52.526;13.326;2023-03-15T00:58:48;100355.91;;;3.47;82.81
15750;BME280;7976;52.526;13.326;2023-03-15T01:01:20;100352.50;;;3.46;83.02
15750;BME280;7976;52.526;13.326;2023-03-15T01:03:48;100359.34;;;3.47;82.89
15750;BME280;7976;52.526;13.326;2023-03-15T01:06:18;100364.56;;;3.46;82.86
15750;BME280;7976;52.526;13.326;2023-03-15T01:08:48;100370.50;;;3.51;82.85
15750;BME280;7976;52.526;13.326;2023-03-15T01:11:21;100372.22;;;3.52;82.76
15750;BME280;7976;52.526;13.326;2023-03-15T01:13:50;100384.28;;;3.53;82.67
15750;BME280;7976;52.526;13.326;2023-03-15T01:16:17;100379.94;;;3.53;82.94
15750;BME280;7976;52.526;13.326;2023-03-15T01:18:44;100375.63;;;3.54;82.81
15750;BME280;7976;52.526;13.326;2023-03-15T01:21:14;100384.25;;;3.54;82.77
15750;BME280;7976;52.526;13.326;2023-03-15T01:23:44;100379.94;;;3.53;82.65
15750;BME280;7976;52.526;13.326;2023-03-15T01:26:15;100391.16;;;3.54;82.83
15750;BME280;7976;52.526;13.326;2023-03-15T01:28:43;100396.31;;;3.54;82.94
15750;BME280;7976;52.526;13.326;2023-03-15T01:31:20;100405.81;;;3.52;83.31
15750;BME280;7976;52.526;13.326;2023-03-15T01:33:49;100407.59;;;3.50;82.92
15750;BME280;7976;52.526;13.326;2023-03-15T01:36:16;100398.13;;;3.49;83.01
15750;BME280;7976;52.526;13.326;2023-03-15T01:38:43;100405.88;;;3.49;83.10
15750;BME280;7976;52.526;13.326;2023-03-15T01:41:11;100409.38;;;3.46;83.14
15750;BME280;7976;52.526;13.326;2023-03-15T01:43:40;100407.66;;;3.44;83.05
15750;BME280;7976;52.526;13.326;2023-03-15T01:46:23;100414.56;;;3.43;83.25
15750;BME280;7976;52.526;13.326;2023-03-15T01:49:02;100418.00;;;3.44;83.13
15750;BME280;7976;52.526;13.326;2023-03-15T01:51:40;100421.47;;;3.44;83.25
15750;BME280;7976;52.526;13.326;2023-03-15T01:54:14;100404.22;;;3.43;83.52
15750;BME280;7976;52.526;13.326;2023-03-15T01:56:49;100418.91;;;3.43;83.33
15750;BME280;7976;52.526;13.326;2023-03-15T01:59:26;100415.47;;;3.41;83.58
15750;BME280;7976;52.526;13.326;2023-03-15T02:01:57;100417.19;;;3.40;83.41
15750;BME280;7976;52.526;13.326;2023-03-15T02:04:30;100418.94;;;3.40;83.35
15750;BME280;7976;52.526;13.326;2023-03-15T02:07:01;100429.28;;;3.41;83.31
15750;BME280;7976;52.526;13.326;2023-03-15T02:09:39;100426.69;;;3.41;83.54
15750;BME280;7976;52.526;13.326;2023-03-15T02:12:09;100418.94;;;3.40;83.76
15750;BME280;7976;52.526;13.326;2023-03-15T02:14:38;100428.44;;;3.39;83.62
15750;BME280;7976;52.526;13.326;2023-03-15T02:17:07;100433.66;;;3.36;83.38
15750;BME280;7976;52.526;13.326;2023-03-15T02:19:47;100439.69;;;3.34;83.47
15750;BME280;7976;52.526;13.326;2023-03-15T02:22:29;100436.25;;;3.33;83.61
15750;BME280;7976;52.526;13.326;2023-03-15T02:25:05;100432.84;;;3.33;83.49
15750;BME280;7976;52.526;13.326;2023-03-15T02:27:39;100438.84;;;3.32;83.50
15750;BME280;7976;52.526;13.326;2023-03-15T02:30:09;100437.19;;;3.28;83.53
15750;BME280;7976;52.526;13.326;2023-03-15T02:32:37;100443.25;;;3.25;83.71
15750;BME280;7976;52.526;13.326;2023-03-15T02:35:05;100453.63;;;3.24;83.62
15750;BME280;7976;52.526;13.326;2023-03-15T02:37:33;100456.25;;;3.21;83.80
15750;BME280;7976;52.526;13.326;2023-03-15T02:40:00;100454.56;;;3.17;83.75
15750;BME280;7976;52.526;13.326;2023-03-15T02:42:28;100452.88;;;3.14;83.95
15750;BME280;7976;52.526;13.326;2023-03-15T02:44:57;100458.91;;;3.15;83.84
15750;BME280;7976;52.526;13.326;2023-03-15T02:47:30;100463.25;;;3.13;83.73
15750;BME280;7976;52.526;13.326;2023-03-15T02:49:59;100470.16;;;3.11;84.25
15750;BME280;7976;52.526;13.326;2023-03-15T02:52:26;100471.03;;;3.10;84.08
15750;BME280;7976;52.526;13.326;2023-03-15T02:54:53;100478.78;;;3.08;84.12
15750;BME280;7976;52.526;13.326;2023-03-15T02:57:21;100478.78;;;3.10;84.23
15750;BME280;7976;52.526;13.326;2023-03-15T02:59:48;100477.03;;;3.10;84.31
15750;BME280;7976;52.526;13.326;2023-03-15T03:02:18;100482.16;;;3.13;84.26
15750;BME280;7976;52.526;13.326;2023-03-15T03:04:45;100492.50;;;3.15;84.21
15750;BME280;7976;52.526;13.326;2023-03-15T03:07:11;100486.47;;;3.16;84.17
15750;BME280;7976;52.526;13.326;2023-03-15T03:09:48;100488.16;;;3.17;84.18
15750;BME280;7976;52.526;13.326;2023-03-15T03:12:16;100491.59;;;3.17;84.09
15750;BME280;7976;52.526;13.326;2023-03-15T03:14:43;100483.84;;;3.17;84.29
15750;BME280;7976;52.526;13.326;2023-03-15T03:17:14;100497.56;;;3.22;84.21
15750;BME280;7976;52.526;13.326;2023-03-15T03:19:43;100499.28;;;3.22;84.00
15750;BME280;7976;52.526;13.326;2023-03-15T03:22:10;100501.03;;;3.23;84.12
15750;BME280;7976;52.526;13.326;2023-03-15T03:24:39;100503.56;;;3.26;84.02
15750;BME280;7976;52.526;13.326;2023-03-15T03:27:11;100518.19;;;3.27;83.94
15750;BME280;7976;52.526;13.326;2023-03-15T03:29:39;100522.50;;;3.29;83.77
15750;BME280;7976;52.526;13.326;2023-03-15T03:32:10;100520.75;;;3.30;84.12
15750;BME280;7976;52.526;13.326;2023-03-15T03:34:37;100519.78;;;3.37;84.03
15750;BME280;7976;52.526;13.326;2023-03-15T03:37:06;100531.81;;;3.41;83.99
15750;BME280;7976;52.526;13.326;2023-03-15T03:39:48;100524.03;;;3.44;84.08
15750;BME280;7976;52.526;13.326;2023-03-15T03:42:15;100529.16;;;3.47;83.92
15750;BME280;7976;52.526;13.326;2023-03-15T03:44:42;100543.84;;;3.45;83.75
15750;BME280;7976;52.526;13.326;2023-03-15T03:47:09;100539.53;;;3.45;83.73
15750;BME280;7976;52.526;13.326;2023-03-15T03:49:36;100540.41;;;3.44;83.53
15750;BME280;7976;52.526;13.326;2023-03-15T03:52:05;100552.50;;;3.42;83.55
15750;BME280;7976;52.526;13.326;2023-03-15T03:54:33;100560.28;;;3.39;84.02
15750;BME280;7976;52.526;13.326;2023-03-15T03:57:00;100552.59;;;3.35;83.51
15750;BME280;7976;52.526;13.326;2023-03-15T03:59:31;100556.06;;;3.31;83.59
15750;BME280;7976;52.526;13.326;2023-03-15T04:02:03;100559.53;;;3.31;83.45
15750;BME280;7976;52.526;13.326;2023-03-15T04:04:30;100553.50;;;3.29;83.36
15750;BME280;7976;52.526;13.326;2023-03-15T04:06:57;100557.81;;;3.29;83.49
15750;BME280;7976;52.526;13.326;2023-03-15T04:09:31;100569.03;;;3.29;83.66
15750;BME280;7976;52.526;13.326;2023-03-15T04:12:02;100562.09;;;3.31;83.45
15750;BME280;7976;52.526;13.326;2023-03-15T04:14:29;100575.84;;;3.33;83.48
15750;BME280;7976;52.526;13.326;2023-03-15T04:16:56;100574.19;;;3.29;82.86
15750;BME280;7976;52.526;13.326;2023-03-15T04:19:23;100581.97;;;3.26;82.81
15750;BME280;7976;52.526;13.326;2023-03-15T04:21:51;100582.00;;;3.22;83.07
15750;BME280;7976;52.526;13.326;2023-03-15T04:24:38;100585.50;;;3.18;82.98
15750;BME280;7976;52.526;13.326;2023-03-15T04:27:12;100588.13;;;3.15;83.20
15750;BME280;7976;52.526;13.326;2023-03-15T04:30:02;100584.69;;;3.14;83.25
15750;BME280;7976;52.526;13.326;2023-03-15T04:33:08;100589.00;;;3.14;83.48
15750;BME280;7976;52.526;13.326;2023-03-15T04:35:54;100593.31;;;3.15;83.13
15750;BME280;7976;52.526;13.326;2023-03-15T04:38:33;100600.22;;;3.13;82.77
15750;BME280;7976;52.526;13.326;2023-03-15T04:41:11;100598.47;;;3.12;82.78
15750;BME280;7976;52.526;13.326;2023-03-15T04:43:55;100602.75;;;3.16;82.62
15750;BME280;7976;52.526;13.326;2023-03-15T04:46:37;100604.47;;;3.17;82.87
15750;BME280;7976;52.526;13.326;2023-03-15T04:49:27;100597.56;;;3.19;82.81
15750;BME280;7976;52.526;13.326;2023-03-15T04:52:00;100601.88;;;3.20;82.63
15750;BME280;7976;52.526;13.326;2023-03-15T04:54:41;100607.84;;;3.22;82.63
15750;BME280;7976;52.526;13.326;2023-03-15T04:57:16;100613.91;;;3.21;82.56
15750;BME280;7976;52.526;13.326;2023-03-15T04:59:54;100619.09;;;3.19;82.49
15750;BME280;7976;52.526;13.326;2023-03-15T05:02:35;100616.53;;;3.18;82.20
15750;BME280;7976;52.526;13.326;2023-03-15T05:05:27;100626.84;;;3.19;82.49
15750;BME280;7976;52.526;13.326;2023-03-15T05:08:14;100629.41;;;3.21;82.36
15750;BME280;7976;52.526;13.326;2023-03-15T05:11:11;100631.97;;;3.22;82.28
15750;BME280;7976;52.526;13.326;2023-03-15T05:14:02;100639.72;;;3.24;82.35
15750;BME280;7976;52.526;13.326;2023-03-15T05:16:32;100643.19;;;3.23;82.30
15750;BME280;7976;52.526;13.326;2023-03-15T05:19:19;100646.66;;;3.20;82.15
15750;BME280;7976;52.526;13.326;2023-03-15T05:22:03;100649.25;;;3.19;82.19
15750;BME280;7976;52.526;13.326;2023-03-15T05:24:50;100661.31;;;3.17;82.03
15750;BME280;7976;52.526;13.326;2023-03-15T05:27:56;100663.91;;;3.17;82.36
15750;BME280;7976;52.526;13.326;2023-03-15T05:30:51;100663.03;;;3.19;82.14
15750;BME280;7976;52.526;13.326;2023-03-15T05:33:26;100667.31;;;3.22;82.22
15750;BME280;7976;52.526;13.326;2023-03-15T05:36:11;100681.06;;;3.24;82.04
15750;BME280;7976;52.526;13.326;2023-03-15T05:38:59;100678.47;;;3.25;82.24
15750;BME280;7976;52.526;13.326;2023-03-15T05:41:46;100677.59;;;3.29;81.97
15750;BME280;7976;52.526;13.326;2023-03-15T05:44:26;100687.88;;;3.34;82.06
15750;BME280;7976;52.526;13.326;2023-03-15T05:47:14;100692.22;;;3.29;81.89
15750;BME280;7976;52.526;13.326;2023-03-15T05:50:07;100695.66;;;3.32;81.67
15750;BME280;7976;52.526;13.326;2023-03-15T05:52:54;100701.69;;;3.33;81.60
15750;BME280;7976;52.526;13.326;2023-03-15T05:55:43;100708.53;;;3.37;81.45
15750;BME280;7976;52.526;13.326;2023-03-15T05:58:14;100706.78;;;3.39;81.38
15750;BME280;7976;52.526;13.326;2023-03-15T06:01:04;100717.97;;;3.44;81.12
15750;BME280;7976;52.526;13.326;2023-03-15T06:03:51;100723.13;;;3.45;80.92
15750;BME280;7976;52.526;13.326;2023-03-15T06:06:23;100726.59;;;3.43;80.93
15750;BME280;7976;52.526;13.326;2023-03-15T06:08:50;100730.03;;;3.45;80.85
15750;BME280;7976;52.526;13.326;2023-03-15T06:11:17;100732.63;;;3.45;80.74
15750;BME280;7976;52.526;13.326;2023-03-15T06:13:44;100742.09;;;3.46;80.47
15750;BME280;7976;52.526;13.326;2023-03-15T06:16:22;100745.50;;;3.49;80.45
15750;BME280;7976;52.526;13.326;2023-03-15T06:18:53;100751.47;;;3.56;80.07
15750;BME280;7976;52.526;13.326;2023-03-15T06:21:20;100759.19;;;3.60;79.92
15750;BME280;7976;52.526;13.326;2023-03-15T06:23:47;100766.94;;;3.62;79.69
15750;BME280;7976;52.526;13.326;2023-03-15T06:26:14;100769.53;;;3.59;79.72
15750;BME280;7976;52.526;13.326;2023-03-15T06:28:44;100766.09;;;3.57;79.87
15750;BME280;7976;52.526;13.326;2023-03-15T06:31:14;100775.63;;;3.53;79.86
15750;BME280;7976;52.526;13.326;2023-03-15T06:33:54;100771.38;;;3.49;79.88
15750;BME280;7976;52.526;13.326;2023-03-15T06:36:20;100786.91;;;3.43;80.33
15750;BME280;7976;52.526;13.326;2023-03-15T06:38:49;100786.13;;;3.35;80.36
15750;BME280;7976;52.526;13.326;2023-03-15T06:41:18;100794.75;;;3.33;81.33
15750;BME280;7976;52.526;13.326;2023-03-15T06:43:46;100802.53;;;3.28;81.79
15750;BME280;7976;52.526;13.326;2023-03-15T06:46:14;100801.69;;;3.29;82.41
15750;BME280;7976;52.526;13.326;2023-03-15T06:48:41;100796.50;;;3.31;82.66
15750;BME280;7976;52.526;13.326;2023-03-15T06:51:11;100805.94;;;3.38;82.93
15750;BME280;7976;52.526;13.326;2023-03-15T06:53:38;100816.19;;;3.45;83.09
15750;BME280;7976;52.526;13.326;2023-03-15T06:56:06;100820.50;;;3.49;83.29
15750;BME280;7976;52.526;13.326;2023-03-15T06:58:33;100823.94;;;3.48;83.25
15750;BME280;7976;52.526;13.326;2023-03-15T07:01:00;100817.06;;;3.46;83.45
15750;BME280;7976;52.526;13.326;2023-03-15T07:03:26;100818.78;;;3.50;83.70
15750;BME280;7976;52.526;13.326;2023-03-15T07:05:53;100824.69;;;3.64;83.75
15750;BME280;7976;52.526;13.326;2023-03-15T07:08:23;100834.06;;;3.77;83.58
15750;BME280;7976;52.526;13.326;2023-03-15T07:10:51;100837.47;;;3.82;83.46
15750;BME280;7976;52.526;13.326;2023-03-15T07:13:18;100835.66;;;3.93;83.64
15750;BME280;7976;52.526;13.326;2023-03-15T07:15:50;100828.69;;;4.01;83.38
15750;BME280;7976;52.526;13.326;2023-03-15T07:18:17;100831.22;;;4.06;83.12
15750;BME280;7976;52.526;13.326;2023-03-15T07:20:44;100830.34;;;4.08;82.84
15750;BME280;7976;52.526;13.326;2023-03-15T07:23:11;100827.69;;;4.14;82.71
15750;BME280;7976;52.526;13.326;2023-03-15T07:25:39;100834.56;;;4.17;82.53
15750;BME280;7976;52.526;13.326;2023-03-15T07:28:06;100838.00;;;4.17;82.25
15750;BME280;7976;52.526;13.326;2023-03-15T07:30:33;100837.16;;;4.17;82.15
15750;BME280;7976;52.526;13.326;2023-03-15T07:33:00;100837.97;;;4.19;82.00
15750;BME280;7976;52.526;13.326;2023-03-15T07:35:27;100843.13;;;4.23;82.02
15750;BME280;7976;52.526;13.326;2023-03-15T07:37:53;100847.41;;;4.27;81.42
15750;BME280;7976;52.526;13.326;2023-03-15T07:40:20;100842.22;;;4.30;81.01
15750;BME280;7976;52.526;13.326;2023-03-15T07:42:49;100848.25;;;4.29;80.63
15750;BME280;7976;52.526;13.326;2023-03-15T07:45:16;100856.09;;;4.23;80.56
15750;BME280;7976;52.526;13.326;2023-03-15T07:47:43;100858.72;;;4.20;80.34
15750;BME280;7976;52.526;13.326;2023-03-15T07:50:10;100866.44;;;4.23;80.25
15750;BME280;7976;52.526;13.326;2023-03-15T07:52:37;100870.72;;;4.26;79.83
15750;BME280;7976;52.526;13.326;2023-03-15T07:55:05;100866.41;;;4.26;79.82
15750;BME280;7976;52.526;13.326;2023-03-15T07:57:33;100857.72;;;4.29;79.87
15750;BME280;7976;52.526;13.326;2023-03-15T08:00:02;100865.53;;;4.26;79.77
15750;BME280;7976;52.526;13.326;2023-03-15T08:02:37;100869.88;;;4.27;79.17
15750;BME280;7976;52.526;13.326;2023-03-15T08:05:05;100877.56;;;4.31;79.12
15750;BME280;7976;52.526;13.326;2023-03-15T08:07:32;100880.97;;;4.36;79.20
15750;BME280;7976;52.526;13.326;2023-03-15T08:10:01;100878.31;;;4.42;78.76
15750;BME280;7976;52.526;13.326;2023-03-15T08:12:28;100878.22;;;4.51;78.83
15750;BME280;7976;52.526;13.326;2023-03-15T08:14:55;100885.06;;;4.58;78.79
15750;BME280;7976;52.526;13.326;2023-03-15T08:17:24;100885.88;;;4.63;78.52
15750;BME280;7976;52.526;13.326;2023-03-15T08:19:51;100883.31;;;4.62;78.40
15750;BME280;7976;52.526;13.326;2023-03-15T08:22:17;100882.34;;;4.69;78.31
15750;BME280;7976;52.526;13.326;2023-03-15T08:24:44;100895.31;;;4.67;78.11
15750;BME280;7976;52.526;13.326;2023-03-15T08:27:11;100891.03;;;4.66;78.07
15750;BME280;7976;52.526;13.326;2023-03-15T08:29:38;100891.91;;;4.64;78.17
15750;BME280;7976;52.526;13.326;2023-03-15T08:32:06;100897.94;;;4.66;78.18
15750;BME280;7976;52.526;13.326;2023-03-15T08:34:34;100898.78;;;4.66;78.08
15750;BME280;7976;52.526;13.326;2023-03-15T08:37:01;100910.03;;;4.67;78.08
15750;BME280;7976;52.526;13.326;2023-03-15T08:39:28;100908.25;;;4.69;78.16
15750;BME280;7976;52.526;13.326;2023-03-15T08:41:55;100913.44;;;4.72;78.23
15750;BME280;7976;52.526;13.326;2023-03-15T08:44:22;100921.06;;;4.82;78.15
15750;BME280;7976;52.526;13.326;2023-03-15T08:46:48;100924.47;;;4.87;78.17
15750;BME280;7976;52.526;13.326;2023-03-15T08:49:15;100927.06;;;4.90;77.82
15750;BME280;7976;52.526;13.326;2023-03-15T08:51:43;100938.31;;;4.86;78.06
15750;BME280;7976;52.526;13.326;2023-03-15T08:54:10;100941.78;;;4.84;77.82
15750;BME280;7976;52.526;13.326;2023-03-15T08:56:38;100948.69;;;4.85;77.94
15750;BME280;7976;52.526;13.326;2023-03-15T08:59:05;100944.38;;;4.84;77.41
15750;BME280;7976;52.526;13.326;2023-03-15T09:01:32;100941.78;;;4.85;77.22
15750;BME280;7976;52.526;13.326;2023-03-15T09:03:59;100939.97;;;4.93;76.75
15750;BME280;7976;52.526;13.326;2023-03-15T09:06:27;100951.09;;;5.03;76.20
15750;BME280;7976;52.526;13.326;2023-03-15T09:08:55;100957.13;;;5.05;76.00
15750;BME280;7976;52.526;13.326;2023-03-15T09:11:22;100962.31;;;5.03;75.93
15750;BME280;7976;52.526;13.326;2023-03-15T09:13:49;100958.88;;;5.03;75.66
15750;BME280;7976;52.526;13.326;2023-03-15T09:16:16;100965.78;;;5.02;75.57
15750;BME280;7976;52.526;13.326;2023-03-15T09:18:42;100972.72;;;5.02;75.44
15750;BME280;7976;52.526;13.326;2023-03-15T09:21:10;100976.94;;;5.07;75.45
15750;BME280;7976;52.526;13.326;2023-03-15T09:23:37;100977.75;;;5.12;74.66
15750;BME280;7976;52.526;13.326;2023-03-15T09:26:05;100976.13;;;5.05;74.33
15750;BME280;7976;52.526;13.326;2023-03-15T09:28:32;100980.44;;;5.05;74.32
15750;BME280;7976;52.526;13.326;2023-03-15T09:31:03;100988.13;;;5.16;74.32
15750;BME280;7976;52.526;13.326;2023-03-15T09:33:31;100994.88;;;5.30;74.03
15750;BME280;7976;52.526;13.326;2023-03-15T09:35:58;100986.97;;;5.39;73.55
15750;BME280;7976;52.526;13.326;2023-03-15T09:38:26;100993.03;;;5.38;72.97
15750;BME280;7976;52.526;13.326;2023-03-15T09:40:56;100992.97;;;5.44;73.03
15750;BME280;7976;52.526;13.326;2023-03-15T09:44:09;100998.84;;;5.57;72.50
15750;BME280;7976;52.526;13.326;2023-03-15T09:46:43;100999.53;;;5.71;72.17
15750;BME280;7976;52.526;13.326;2023-03-15T09:49:25;101002.00;;;5.84;71.91
15750;BME280;7976;52.526;13.326;2023-03-15T09:52:08;101007.94;;;5.91;70.88
15750;BME280;7976;52.526;13.326;2023-03-15T09:54:43;101012.31;;;5.87;70.71
15750;BME280;7976;52.526;13.326;2023-03-15T09:57:18;101009.75;;;5.86;70.67
15750;BME280;7976;52.526;13.326;2023-03-15T09:59:52;101012.34;;;5.86;70.73
15750;BME280;7976;52.526;13.326;2023-03-15T10:02:24;101016.66;;;5.87;70.68
15750;BME280;7976;52.526;13.326;2023-03-15T10:05:00;101018.38;;;5.86;70.78
15750;BME280;7976;52.526;13.326;2023-03-15T10:07:30;101021.78;;;5.90;70.94
15750;BME280;7976;52.526;13.326;2023-03-15T10:09:57;101032.13;;;5.94;70.93
15750;BME280;7976;52.526;13.326;2023-03-15T10:12:29;101029.31;;;6.09;70.75
15750;BME280;7976;52.526;13.326;2023-03-15T10:15:25;101021.13;;;6.35;70.38
15750;BME280;7976;52.526;13.326;2023-03-15T10:18:16;101028.00;;;6.39;69.59
15750;BME280;7976;52.526;13.326;2023-03-15T10:21:00;101029.78;;;6.35;69.42
15750;BME280;7976;52.526;13.326;2023-03-15T10:23:38;101027.19;;;6.35;69.29
15750;BME280;7976;52.526;13.326;2023-03-15T10:26:13;101031.44;;;6.41;69.06
15750;BME280;7976;52.526;13.326;2023-03-15T10:28:42;101021.59;;;6.60;69.31
15750;BME280;7976;52.526;13.326;2023-03-15T10:31:14;101031.81;;;6.70;68.62
15750;BME280;7976;52.526;13.326;2023-03-15T10:33:42;101029.94;;;6.78;68.48
15750;BME280;7976;52.526;13.326;2023-03-15T10:36:16;101035.13;;;6.80;68.06
15750;BME280;7976;52.526;13.326;2023-03-15T10:38:44;101029.13;;;6.76;68.03
15750;BME280;7976;52.526;13.326;2023-03-15T10:41:14;101036.16;;;6.68;67.94
15750;BME280;7976;52.526;13.326;2023-03-15T10:44:04;101043.34;;;6.54;67.92
15750;BME280;7976;52.526;13.326;2023-03-15T10:46:34;101041.84;;;6.41;68.24
15750;BME280;7976;52.526;13.326;2023-03-15T10:49:10;101044.69;;;6.24;68.45
15750;BME280;7976;52.526;13.326;2023-03-15T10:51:40;101051.75;;;6.13;68.83
15750;BME280;7976;52.526;13.326;2023-03-15T10:54:14;101044.94;;;6.05;68.95
15750;BME280;7976;52.526;13.326;2023-03-15T10:56:54;101045.97;;;5.95;68.97
15750;BME280;7976;52.526;13.326;2023-03-15T10:59:27;101044.31;;;5.91;68.65
15750;BME280;7976;52.526;13.326;2023-03-15T11:02:21;101051.19;;;5.92;68.12
15750;BME280;7976;52.526;13.326;2023-03-15T11:04:58;101044.00;;;6.12;67.92
15750;BME280;7976;52.526;13.326;2023-03-15T11:07:27;101047.16;;;6.32;67.36
15750;BME280;7976;52.526;13.326;2023-03-15T11:10:00;101052.00;;;6.56;66.91
15750;BME280;7976;52.526;13.326;2023-03-15T11:12:30;101048.03;;;6.84;66.40
15750;BME280;7976;52.526;13.326;2023-03-15T11:15:03;101052.75;;;7.13;65.95
15750;BME280;7976;52.526;13.326;2023-03-15T11:17:35;101048.94;;;7.30;65.28
15750;BME280;7976;52.526;13.326;2023-03-15T11:20:28;101060.56;;;7.55;65.15
15750;BME280;7976;52.526;13.326;2023-03-15T11:22:58;101065.47;;;7.71;64.51
15750;BME280;7976;52.526;13.326;2023-03-15T11:25:29;101053.22;;;7.76;63.82
15750;BME280;7976;52.526;13.326;2023-03-15T11:27:58;101056.56;;;7.82;63.65
15750;BME280;7976;52.526;13.326;2023-03-15T11:30:29;101049.59;;;7.83;63.24
15750;BME280;7976;52.526;13.326;2023-03-15T11:33:04;101057.56;;;7.77;62.76
15750;BME280;7976;52.526;13.326;2023-03-15T11:35:36;101054.88;;;7.80;62.22
15750;BME280;7976;52.526;13.326;2023-03-15T11:38:12;101046.16;;;7.81;62.11
15750;BME280;7976;52.526;13.326;2023-03-15T11:40:43;101047.97;;;7.79;61.90
15750;BME280;7976;52.526;13.326;2023-03-15T11:43:18;101059.34;;;7.75;62.42
15750;BME280;7976;52.526;13.326;2023-03-15T11:45:53;101061.28;;;7.63;62.32
15750;BME280;7976;52.526;13.326;2023-03-15T11:48:50;101065.84;;;7.52;62.21
15750;BME280;7976;52.526;13.326;2023-03-15T11:51:18;101070.72;;;7.26;62.08
15750;BME280;7976;52.526;13.326;2023-03-15T11:54:01;101073.88;;;6.95;62.45
15750;BME280;7976;52.526;13.326;2023-03-15T11:56:48;101067.19;;;6.80;62.63
15750;BME280;7976;52.526;13.326;2023-03-15T11:59:17;101060.88;;;6.93;63.06
15750;BME280;7976;52.526;13.326;2023-03-15T12:01:48;101063.91;;;7.18;62.76
15750;BME280;7976;52.526;13.326;2023-03-15T12:04:41;101057.34;;;7.44;62.06
15750;BME280;7976;52.526;13.326;2023-03-15T12:07:37;101057.88;;;7.61;61.76
15750;BME280;7976;52.526;13.326;2023-03-15T12:10:41;101055.19;;;7.64;61.45
15750;BME280;7976;52.526;13.326;2023-03-15T12:13:22;101053.44;;;7.67;60.89
15750;BME280;7976;52.526;13.326;2023-03-15T12:15:50;101053.34;;;7.70;60.59
15750;BME280;7976;52.526;13.326;2023-03-15T12:18:41;101063.59;;;7.79;60.55
15750;BME280;7976;52.526;13.326;2023-03-15T12:21:15;101056.41;;;7.90;60.42
15750;BME280;7976;52.526;13.326;2023-03-15T12:23:48;101057.31;;;7.89;60.10
15750;BME280;7976;52.526;13.326;2023-03-15T12:26:34;101054.13;;;7.75;60.23
15750;BME280;7976;52.526;13.326;2023-03-15T12:29:12;101060.38;;;7.66;60.50
15750;BME280;7976;52.526;13.326;2023-03-15T12:31:57;101063.94;;;7.60;60.79
15750;BME280;7976;52.526;13.326;2023-03-15T12:34:34;101057.81;;;7.64;60.89
15750;BME280;7976;52.526;13.326;2023-03-15T12:37:12;101063.25;;;7.52;60.75
15750;BME280;7976;52.526;13.326;2023-03-15T12:39:45;101059.88;;;7.47;60.62
15750;BME280;7976;52.526;13.326;2023-03-15T12:42:58;101071.00;;;7.55;60.50
15750;BME280;7976;52.526;13.326;2023-03-15T12:45:41;101068.53;;;7.49;59.99
15750;BME280;7976;52.526;13.326;2023-03-15T12:48:24;101067.59;;;7.52;59.77
15750;BME280;7976;52.526;13.326;2023-03-15T12:50:56;101071.69;;;7.65;59.21
15750;BME280;7976;52.526;13.326;2023-03-15T12:53:48;101064.28;;;7.87;59.09
15750;BME280;7976;52.526;13.326;2023-03-15T12:56:43;101069.00;;;8.09;58.61
15750;BME280;7976;52.526;13.326;2023-03-15T12:59:28;101070.72;;;8.10;57.84
15750;BME280;7976;52.526;13.326;2023-03-15T13:01:58;101077.00;;;8.02;57.77
15750;BME280;7976;52.526;13.326;2023-03-15T13:04:27;101071.78;;;8.02;57.75
15750;BME280;7976;52.526;13.326;2023-03-15T13:07:19;101080.94;;;8.19;57.66
15750;BME280;7976;52.526;13.326;2023-03-15T13:10:09;101066.75;;;8.34;56.66
15750;BME280;7976;52.526;13.326;2023-03-15T13:12:48;101067.72;;;8.30;55.79
15750;BME280;7976;52.526;13.326;2023-03-15T13:15:22;101064.34;;;8.25;55.01
15750;BME280;7976;52.526;13.326;2023-03-15T13:17:56;101069.47;;;8.28;54.41
15750;BME280;7976;52.526;13.326;2023-03-15T13:20:41;101070.19;;;8.34;54.19
15750;BME280;7976;52.526;13.326;2023-03-15T13:23:19;101067.75;;;8.28;53.88
15750;BME280;7976;52.526;13.326;2023-03-15T13:26:18;101065.22;;;8.22;53.60
15750;BME280;7976;52.526;13.326;2023-03-15T13:28:55;101067.16;;;8.14;53.37
15750;BME280;7976;52.526;13.326;2023-03-15T13:31:26;101066.47;;;8.06;52.94
15750;BME280;7976;52.526;13.326;2023-03-15T13:33:56;101061.22;;;8.08;52.93